Flight Track Log - Related Links

Times and Time Zones

All times are in EDT time to prevent confusion due to time zone crossing. See the RPA3161 flight status page for this flight to view local times or setup timezone preferences in your user account.

Time Position Orientation Groundspeed Altitude Reporting Facility
EDT Latitude Longitude Course Direction KTS MPH feet Rate Location/Type
Tue 01:52:15 PM 39.8807 -75.2702 216° Southwest  Level FlightAware Approximate
Tue 01:53:11 PM 39.8667 -75.2833 232° Southwest 156 180 700  Level Philadelphia TRACON
Tue 01:53:46 PM 39.8547 -75.3031 256° West 142 163 1,800 1,622 Climbing FAA TRACON SMA TRACON (SMA)
Tue 01:54:25 PM 39.8458 -75.3478 317° Northwest 199 229 2,700 1,747 Climbing FAA TRACON SMA TRACON (SMA)
Tue 01:55:05 PM 39.8750 -75.3836 338° Northwest 254 292 4,100 2,444 Climbing FAA TRACON SMA TRACON (SMA)
Tue 01:55:46 PM 39.9158 -75.4056 338° Northwest 254 292 6,000 2,925 Climbing FAA TRACON SMA TRACON (SMA)
Tue 01:56:25 PM 39.9628 -75.4297 340° North 261 300 8,000 2,810 Climbing FAA TRACON SMA TRACON (SMA)
Tue 01:57:05 PM 40.0103 -75.4528 338° Northwest 270 311 9,700 2,296 Climbing FAA TRACON SMA TRACON (SMA)
Tue 01:57:46 PM 40.0564 -75.4772 339° North 278 320 11,100 2,148 Climbing FAA TRACON SMA TRACON (SMA)
Tue 01:58:26 PM 40.1108 -75.5044 340° North 298 343 12,600 1,500 Climbing FAA TRACON SMA TRACON (SMA)
Tue 01:59:06 PM 40.1614 -75.5289 337° Northwest 310 357 13,100 380 Climbing FAA TRACON SMA TRACON (SMA)
Tue 01:59:45 PM 40.2169 -75.5592 314° West 312 359 13,100  Level FAA TRACON SMA TRACON (SMA)
Tue 02:00:26 PM 40.2572 -75.6142 311° West 305 351 13,100 815 Level FAA TRACON SMA TRACON (SMA)
Tue 02:01:06 PM 40.2917 -75.6653 311° West 310 357 14,200 1,975 Climbing FAA TRACON SMA TRACON (SMA)
Tue 02:01:45 PM 40.3303 -75.7236 312° West 308 354 15,700 2,127 Climbing FAA TRACON SMA TRACON (SMA)
Tue 02:02:25 PM 40.3706 -75.7817 311° West 313 360 17,000 757 Climbing FAA TRACON SMA TRACON (SMA)
Tue 02:03:28 PM 40.4247 -75.8639 288° West 317 365 17,000 732 Level New York Center
Tue 02:04:28 PM 40.4547 -75.9833 284° West 311 358 18,500 1,636 Climbing New York Center
Tue 02:05:29 PM 40.4750 -76.0942 281° West 311 358 20,300 1,587 Climbing New York Center
Tue 02:06:29 PM 40.4925 -76.2128 282° West 320 368 21,700 1,388 Climbing New York Center
Tue 02:07:30 PM 40.5103 -76.3233 283° West 342 394 23,100 1,488 Climbing New York Center
Tue 02:08:30 PM 40.5350 -76.4619 283° West 353 406 24,700 1,513 Climbing New York Center
Tue 02:09:29 PM 40.5578 -76.5894 282° West 358 412 26,100 1,261 Climbing New York Center
Tue 02:10:29 PM 40.5803 -76.7253 281° West 374 430 27,200 992 Climbing New York Center
Tue 02:11:30 PM 40.6006 -76.8583 282° West 374 430 28,100 857 Climbing New York Center
Tue 02:12:28 PM 40.6211 -76.9833 282° West 384 442 28,900 814 Climbing New York Center
Tue 02:13:28 PM 40.6464 -77.1386 283° West 384 442 29,700 694 Climbing New York Center
Tue 02:14:29 PM 40.6686 -77.2642 283° West 389 448 30,300 738 Climbing New York Center
Tue 02:15:30 PM 40.6939 -77.4089 282° West 400 460 31,200 920 Climbing New York Center
Tue 02:17:25 PM 40.7372 -77.6892 282° West 391 450 33,000 716 Climbing Cleveland Center
Tue 02:18:26 PM 40.7594 -77.8308 282° West 391 450 33,300 450 Climbing Cleveland Center
Tue 02:19:25 PM 40.7817 -77.9753 282° West 391 450 33,900 350 Climbing Cleveland Center
Tue 02:20:26 PM 40.8036 -78.1169 283° West 391 450 34,000 50 Climbing Cleveland Center
Tue 02:21:26 PM 40.8272 -78.2561 282° West 391 450 34,000  Level Cleveland Center
Tue 02:22:25 PM 40.8489 -78.3953 281° West 391 450 34,000  Level Cleveland Center
Tue 02:23:26 PM 40.8703 -78.5375 281° West 391 450 34,000  Level Cleveland Center
Tue 02:24:26 PM 40.8914 -78.6769 280° West 391 450 34,000  Level Cleveland Center
Tue 02:25:26 PM 40.9103 -78.8219 281° West 391 450 34,000  Level Cleveland Center
Tue 02:26:26 PM 40.9314 -78.9644 286° West 391 450 34,000  Level Cleveland Center
Tue 02:27:26 PM 40.9603 -79.1011 290° West 396 456 34,000  Level Cleveland Center
Tue 02:28:25 PM 40.9975 -79.2406 290° West 396 456 34,000  Level Cleveland Center
Tue 02:29:25 PM 41.0344 -79.3775 291° West 401 461 34,000  Level Cleveland Center
Tue 02:30:26 PM 41.0733 -79.5117 289° West 401 461 34,000  Level Cleveland Center
Tue 02:31:25 PM 41.1097 -79.6489 289° West 401 461 34,000  Level Cleveland Center
Tue 02:32:26 PM 41.1486 -79.8000 289° West 401 461 34,000  Level Cleveland Center
Tue 02:33:26 PM 41.1847 -79.9375 291° West 401 461 34,000  Level Cleveland Center
Tue 02:34:25 PM 41.2189 -80.0586 288° West 401 461 34,000  Level Cleveland Center
Tue 02:35:26 PM 41.2528 -80.1992 290° West 401 461 34,000  Level Cleveland Center
Tue 02:36:26 PM 41.2906 -80.3372 288° West 401 461 34,000  Level Cleveland Center
Tue 02:37:26 PM 41.3283 -80.4919 289° West 401 461 34,000  Level Cleveland Center
Tue 02:38:26 PM 41.3639 -80.6328 289° West 401 461 34,000  Level Cleveland Center
Tue 02:39:26 PM 41.3992 -80.7714 288° West 396 456 34,000  Level Cleveland Center
Tue 02:40:26 PM 41.4322 -80.9100 290° West 402 463 34,000  Level Cleveland Center
Tue 02:41:25 PM 41.4692 -81.0486 289° West 402 463 34,000  Level Cleveland Center
Tue 02:42:25 PM 41.5039 -81.1875 287° West 402 463 34,000  Level Cleveland Center
Tue 02:43:26 PM 41.5364 -81.3267 288° West 402 463 34,000  Level Cleveland Center
Tue 02:44:26 PM 41.5708 -81.4686 289° West 402 463 34,000  Level Cleveland Center
Tue 02:45:25 PM 41.6072 -81.6078 288° West 402 463 34,000  Level Cleveland Center
Tue 02:46:25 PM 41.6414 -81.7472 289° West 402 463 34,000  Level Cleveland Center
Tue 02:47:25 PM 41.6772 -81.8897 287° West 402 463 34,000  Level Cleveland Center
Tue 02:48:25 PM 41.7089 -82.0294 289° West 397 457 34,000  Level Cleveland Center
Tue 02:49:26 PM 41.7447 -82.1722 288° West 402 463 34,000  Level Cleveland Center
Tue 02:50:26 PM 41.7781 -82.3122 288° West 402 463 34,000  Level Cleveland Center
Tue 02:51:25 PM 41.8114 -82.4525 288° West 402 463 34,000  Level Cleveland Center
Tue 02:52:26 PM 41.8444 -82.5928 288° West 397 457 34,000  Level Cleveland Center
Tue 02:53:26 PM 41.8792 -82.7361 288° West 397 457 34,000  Level Cleveland Center
Tue 02:54:26 PM 41.9119 -82.8739 287° West 402 463 34,000  Level Cleveland Center
Tue 02:55:26 PM 41.9444 -83.0175 287° West 402 463 34,000  Level Cleveland Center
Tue 02:56:26 PM 41.9731 -83.1472 288° West 402 463 34,000  Level Cleveland Center
Tue 02:57:26 PM 42.0092 -83.2994 288° West 402 463 34,000  Level Cleveland Center
Tue 02:58:25 PM 42.0431 -83.4408 295° West 402 463 34,000  Level Cleveland Center
Tue 02:59:26 PM 42.0878 -83.5714 297° West 397 457 34,000  Level Cleveland Center
Tue 03:00:26 PM 42.1383 -83.7056 298° West 397 457 34,000  Level Cleveland Center
Tue 03:01:26 PM 42.1892 -83.8342 296° West 391 450 34,000  Level Cleveland Center
Tue 03:02:26 PM 42.2375 -83.9656 296° West 391 450 34,000  Level Cleveland Center
Tue 03:03:25 PM 42.2856 -84.0975 296° West 391 450 34,000  Level Cleveland Center
Tue 03:04:25 PM 42.3336 -84.2319 297° West 391 450 34,000  Level Cleveland Center
Tue 03:05:26 PM 42.3833 -84.3644 297° West 391 450 34,000  Level Cleveland Center
Tue 03:08:01 PM 42.5067 -84.6992 296° West 400 460 34,000  Level Chicago Center
Tue 03:09:01 PM 42.5536 -84.8311 295° West 400 460 34,000  Level Chicago Center
Tue 03:10:01 PM 42.6006 -84.9686 296° West 395 455 34,000  Level Chicago Center
Tue 03:11:01 PM 42.6472 -85.1011 294° West 395 455 34,000  Level Chicago Center
Tue 03:12:01 PM 42.6967 -85.2558 294° West 395 455 34,000  Level Chicago Center
Tue 03:13:01 PM 42.7411 -85.3917 294° West 395 455 34,000  Level Chicago Center
Tue 03:14:01 PM 42.7853 -85.5303 294° West 395 455 34,000  Level Chicago Center
Tue 03:15:01 PM 42.8294 -85.6664 292° West 395 455 34,000  Level Chicago Center
Tue 03:16:01 PM 42.8711 -85.8056 292° West 395 455 34,000  Level Chicago Center
Tue 03:17:01 PM 42.9083 -85.9311 295° West 395 455 34,000  Level Chicago Center
Tue 03:18:01 PM 42.9561 -86.0703 292° West 395 455 34,000  Level Chicago Center
Tue 03:19:01 PM 42.9975 -86.2103 293° West 401 461 34,000  Level Chicago Center
Tue 03:20:01 PM 43.0456 -86.3642 293° West 401 461 34,000  Level Chicago Center
Tue 03:21:01 PM 43.0886 -86.5042 293° West 407 468 34,000  Level Chicago Center
Tue 03:22:01 PM 43.1314 -86.6417 293° West 407 468 34,000  Level Chicago Center
Tue 03:23:01 PM 43.1742 -86.7819 293° West 407 468 34,000  Level Chicago Center
Tue 03:24:01 PM 43.2169 -86.9228 292° West 407 468 34,000  Level Chicago Center
Tue 03:25:01 PM 43.2506 -87.0353 292° West 407 468 34,000  Level Chicago Center
Tue 03:26:01 PM 43.2953 -87.1906 292° West 407 468 34,000  Level Chicago Center
Tue 03:27:01 PM 43.3372 -87.3319 292° West 407 468 34,000  Level Chicago Center
Tue 03:28:01 PM 43.3814 -87.4819 292° West 402 463 34,000  Level Chicago Center
Tue 03:29:01 PM 43.4233 -87.6233 292° West 402 463 34,000  Level Chicago Center
Tue 03:30:01 PM 43.4650 -87.7625 291° West 402 463 34,000  Level Chicago Center
Tue 03:31:01 PM 43.5042 -87.9044 294° West 402 463 34,000  Level Chicago Center
Tue 03:32:01 PM 43.5475 -88.0411 291° West 396 456 34,000  Level Chicago Center
Tue 03:33:01 PM 43.5867 -88.1836 292° West 396 456 34,000  Level Chicago Center
Tue 03:34:01 PM 43.6275 -88.3233 291° West 391 450 34,000  Level Chicago Center
Tue 03:35:01 PM 43.6661 -88.4661 292° West 396 456 34,000  Level Chicago Center
Tue 03:36:01 PM 43.7067 -88.6061 291° West 396 456 34,000  Level Chicago Center
Tue 03:37:01 PM 43.7472 -88.7522 292° West 396 456 34,000  Level Chicago Center
Tue 03:38:01 PM 43.7875 -88.8928 290° West 396 456 34,000  Level Chicago Center
Tue 03:39:01 PM 43.8253 -89.0333 292° West 396 456 34,000  Level Chicago Center
Tue 03:40:01 PM 43.8653 -89.1742 290° West 396 456 34,000  Level Chicago Center
Tue 03:40:52 PM 43.8961 -89.2914 291° West 389 448 34,000  Level Minneapolis Center
Tue 03:41:52 PM 43.9344 -89.4328 291° West 399 459 34,000  Level Minneapolis Center
Tue 03:42:52 PM 43.9728 -89.5744 291° West 399 459 34,000  Level Minneapolis Center
Tue 03:43:53 PM 44.0111 -89.7161 300° West 399 459 34,000  Level Minneapolis Center
Tue 03:44:53 PM 44.0631 -89.8428 300° West 388 447 34,000  Level Minneapolis Center
Tue 03:45:52 PM 44.1150 -89.9697 301° West 380 437 34,000  Level Minneapolis Center
Tue 03:46:53 PM 44.1689 -90.0969 301° West 385 443 34,000  Level Minneapolis Center
Tue 03:47:51 PM 44.2228 -90.2242 300° West 390 449 34,000  Level Minneapolis Center
Tue 03:48:51 PM 44.2764 -90.3544 299° West 384 442 34,000  Level Minneapolis Center
Tue 03:49:52 PM 44.3278 -90.4822 299° West 384 442 34,000 -639 Level Minneapolis Center
Tue 03:50:53 PM 44.3789 -90.6106 301° West 384 442 32,700 -1,563 Descending Minneapolis Center
Tue 03:51:51 PM 44.4342 -90.7414 299° West 389 448 30,900 -1,765 Descending Minneapolis Center
Tue 03:52:52 PM 44.4875 -90.8758 302° West 389 448 29,200 -1,623 Descending Minneapolis Center
Tue 03:53:53 PM 44.5400 -90.9958 298° West 389 448 27,600 -1,714 Descending Minneapolis Center
Tue 03:54:51 PM 44.5931 -91.1364 301° West 399 459 25,800 -1,815 Descending Minneapolis Center
Tue 03:55:52 PM 44.6497 -91.2683 300° West 399 459 24,000 -1,721 Descending Minneapolis Center
Tue 03:56:53 PM 44.7089 -91.4122 298° West 393 452 22,300 -1,714 Descending Minneapolis Center
Tue 03:57:51 PM 44.7569 -91.5419 299° West 381 438 20,600 -1,613 Descending Minneapolis Center
Tue 03:58:52 PM 44.8025 -91.6603 301° West 369 425 19,100 -1,438 Descending Minneapolis Center
Tue 03:59:52 PM 44.8481 -91.7672 297° West 337 388 17,700 -1,388 Descending Minneapolis Center
Tue 04:00:53 PM 44.8847 -91.8686 308° West 310 357 16,300 -1,453 Descending Minneapolis Center
Tue 04:01:27 PM 44.9169 -91.9278 299° West 307 353 15,400 -1,479 Descending FAA TRACON SMA TRACON (SMA)
Tue 04:02:06 PM 44.9450 -92.0008 298° West 307 353 14,500 -1,291 Descending FAA TRACON SMA TRACON (SMA)
Tue 04:02:46 PM 44.9692 -92.0642 299° West 299 344 13,700 -1,275 Descending FAA TRACON SMA TRACON (SMA)
Tue 04:03:26 PM 44.9969 -92.1358 297° West 299 344 12,800 -1,350 Descending FAA TRACON SMA TRACON (SMA)
Tue 04:04:06 PM 45.0222 -92.2064 297° West 296 341 11,900 -1,367 Descending FAA TRACON SMA TRACON (SMA)
Tue 04:04:45 PM 45.0453 -92.2700 267° West 297 342 11,000 -723 Descending FAA TRACON SMA TRACON (SMA)
Tue 04:05:29 PM 45.0428 -92.3494 237° Southwest 301 346 10,900 -444 Descending FAA TRACON SMA TRACON (SMA)
Tue 04:06:06 PM 45.0114 -92.4181 235° Southwest 300 345 10,400 -1,263 Descending FAA TRACON SMA TRACON (SMA)
Tue 04:06:45 PM 44.9833 -92.4744 234° Southwest 286 329 9,300 -1,747 Descending FAA TRACON SMA TRACON (SMA)
Tue 04:07:25 PM 44.9517 -92.5367 234° Southwest 280 322 8,100 -1,704 Descending FAA TRACON SMA TRACON (SMA)
Tue 04:08:06 PM 44.9236 -92.5908 235° Southwest 277 319 7,000 -889 Descending FAA TRACON SMA TRACON (SMA)
Tue 04:08:46 PM 44.8933 -92.6522 234° Southwest 274 315 6,900 -74 Descending FAA TRACON SMA TRACON (SMA)
Tue 04:09:27 PM 44.8642 -92.7089 235° Southwest 258 297 6,900 -375 Level FAA TRACON SMA TRACON (SMA)
Tue 04:10:06 PM 44.8417 -92.7542 235° Southwest 229 264 6,400 -987 Descending FAA TRACON SMA TRACON (SMA)
Tue 04:10:46 PM 44.8169 -92.8047 238° Southwest 224 258 5,600 -975 Descending FAA TRACON SMA TRACON (SMA)
Tue 04:11:26 PM 44.7961 -92.8508 264° West 201 231 5,100 -525 Descending FAA TRACON SMA TRACON (SMA)
Tue 04:12:06 PM 44.7925 -92.8964 266° West 192 221 4,900 -375 Descending FAA TRACON SMA TRACON (SMA)
Tue 04:12:46 PM 44.7900 -92.9483 280° West 191 220 4,600 -519 Descending FAA TRACON SMA TRACON (SMA)
Tue 04:13:27 PM 44.7958 -92.9961 302° West 187 215 4,200 -750 Descending FAA TRACON SMA TRACON (SMA)
Tue 04:14:06 PM 44.8114 -93.0317 301° West 171 197 3,600 -987 Descending FAA TRACON SMA TRACON (SMA)
Tue 04:14:46 PM 44.8281 -93.0706 301° West 167 192 2,900 -1,050 Descending FAA TRACON SMA TRACON (SMA)

Login

Don't have an account? Register now (free) for customized features, flight alerts, and more!